sensor_id;sensor_type;location;lat;lon;timestamp;temperature;humidity
23207;DHT22;11773;52.570;13.052;2023-03-11T00:01:28;3.70;99.90
23207;DHT22;11773;52.570;13.052;2023-03-11T00:03:58;3.90;99.90
23207;DHT22;11773;52.570;13.052;2023-03-11T00:06:27;3.90;99.90
23207;DHT22;11773;52.570;13.052;2023-03-11T00:08:57;3.80;99.90
23207;DHT22;11773;52.570;13.052;2023-03-11T00:11:26;3.70;99.90
23207;DHT22;11773;52.570;13.052;2023-03-11T00:13:56;3.70;99.90
23207;DHT22;11773;52.570;13.052;2023-03-11T00:16:25;3.70;99.90
23207;DHT22;11773;52.570;13.052;2023-03-11T00:18:55;3.70;99.90
23207;DHT22;11773;52.570;13.052;2023-03-11T00:21:25;3.50;99.90
23207;DHT22;11773;52.570;13.052;2023-03-11T00:23:54;3.40;99.90
23207;DHT22;11773;52.570;13.052;2023-03-11T00:26:25;3.40;99.90
23207;DHT22;11773;52.570;13.052;2023-03-11T00:28:55;3.40;99.90
23207;DHT22;11773;52.570;13.052;2023-03-11T00:31:24;3.30;99.90
23207;DHT22;11773;52.570;13.052;2023-03-11T00:33:54;3.20;99.90
23207;DHT22;11773;52.570;13.052;2023-03-11T00:36:27;3.20;99.90
23207;DHT22;11773;52.570;13.052;2023-03-11T00:39:00;3.00;99.90
23207;DHT22;11773;52.570;13.052;2023-03-11T00:41:34;2.80;99.90
23207;DHT22;11773;52.570;13.052;2023-03-11T00:44:03;3.10;99.90
23207;DHT22;11773;52.570;13.052;2023-03-11T00:46:32;3.00;99.90
23207;DHT22;11773;52.570;13.052;2023-03-11T00:49:02;2.90;99.90
23207;DHT22;11773;52.570;13.052;2023-03-11T00:51:31;3.10;99.90
23207;DHT22;11773;52.570;13.052;2023-03-11T00:54:01;3.20;99.90
23207;DHT22;11773;52.570;13.052;2023-03-11T00:56:30;3.30;99.90
23207;DHT22;11773;52.570;13.052;2023-03-11T00:59:00;3.20;99.90
23207;DHT22;11773;52.570;13.052;2023-03-11T01:01:29;3.20;99.90
23207;DHT22;11773;52.570;13.052;2023-03-11T01:03:59;3.10;99.90
23207;DHT22;11773;52.570;13.052;2023-03-11T01:06:28;3.10;99.90
23207;DHT22;11773;52.570;13.052;2023-03-11T01:09:00;3.20;99.90
23207;DHT22;11773;52.570;13.052;2023-03-11T01:11:29;3.20;99.90
23207;DHT22;11773;52.570;13.052;2023-03-11T01:13:59;3.20;99.90
23207;DHT22;11773;52.570;13.052;2023-03-11T01:16:28;3.20;99.90
23207;DHT22;11773;52.570;13.052;2023-03-11T01:18:57;3.00;99.90
23207;DHT22;11773;52.570;13.052;2023-03-11T01:21:27;3.20;99.90
23207;DHT22;11773;52.570;13.052;2023-03-11T01:23:56;3.10;99.90
23207;DHT22;11773;52.570;13.052;2023-03-11T01:26:26;3.00;99.90
23207;DHT22;11773;52.570;13.052;2023-03-11T01:28:55;2.80;99.90
23207;DHT22;11773;52.570;13.052;2023-03-11T01:31:25;2.90;99.90
23207;DHT22;11773;52.570;13.052;2023-03-11T01:33:54;3.10;99.90
23207;DHT22;11773;52.570;13.052;2023-03-11T01:36:24;2.90;99.90
23207;DHT22;11773;52.570;13.052;2023-03-11T01:38:53;2.90;99.90
23207;DHT22;11773;52.570;13.052;2023-03-11T01:41:23;2.80;99.90
23207;DHT22;11773;52.570;13.052;2023-03-11T01:43:53;2.90;99.90
23207;DHT22;11773;52.570;13.052;2023-03-11T01:46:32;3.00;99.90
23207;DHT22;11773;52.570;13.052;2023-03-11T01:49:15;3.10;99.90
23207;DHT22;11773;52.570;13.052;2023-03-11T01:51:47;2.90;99.90
23207;DHT22;11773;52.570;13.052;2023-03-11T01:54:24;2.80;99.90
23207;DHT22;11773;52.570;13.052;2023-03-11T01:56:57;2.90;99.90
23207;DHT22;11773;52.570;13.052;2023-03-11T01:59:31;2.80;99.90
23207;DHT22;11773;52.570;13.052;2023-03-11T02:02:31;2.90;99.90
23207;DHT22;11773;52.570;13.052;2023-03-11T02:05:01;2.70;99.90
23207;DHT22;11773;52.570;13.052;2023-03-11T02:07:31;2.60;99.90
23207;DHT22;11773;52.570;13.052;2023-03-11T02:10:01;2.60;99.90
23207;DHT22;11773;52.570;13.052;2023-03-11T02:12:34;2.60;99.90
23207;DHT22;11773;52.570;13.052;2023-03-11T02:15:06;2.80;99.90
23207;DHT22;11773;52.570;13.052;2023-03-11T02:17:40;2.70;99.90
23207;DHT22;11773;52.570;13.052;2023-03-11T02:20:17;2.70;99.90
23207;DHT22;11773;52.570;13.052;2023-03-11T02:22:47;2.80;99.90
23207;DHT22;11773;52.570;13.052;2023-03-11T02:25:33;2.80;99.90
23207;DHT22;11773;52.570;13.052;2023-03-11T02:28:06;2.70;99.90
23207;DHT22;11773;52.570;13.052;2023-03-11T02:30:40;2.60;99.90
23207;DHT22;11773;52.570;13.052;2023-03-11T02:33:12;2.60;99.90
23207;DHT22;11773;52.570;13.052;2023-03-11T02:35:43;2.80;99.90
23207;DHT22;11773;52.570;13.052;2023-03-11T02:38:12;2.80;99.90
23207;DHT22;11773;52.570;13.052;2023-03-11T02:40:57;2.80;99.90
23207;DHT22;11773;52.570;13.052;2023-03-11T02:43:38;2.80;99.90
23207;DHT22;11773;52.570;13.052;2023-03-11T02:46:11;2.70;99.90
23207;DHT22;11773;52.570;13.052;2023-03-11T02:48:41;2.80;99.90
23207;DHT22;11773;52.570;13.052;2023-03-11T02:51:11;2.90;99.90
23207;DHT22;11773;52.570;13.052;2023-03-11T02:53:52;2.90;99.90
23207;DHT22;11773;52.570;13.052;2023-03-11T02:56:18;2.80;99.90
23207;DHT22;11773;52.570;13.052;2023-03-11T02:58:47;2.90;99.90
23207;DHT22;11773;52.570;13.052;2023-03-11T03:01:17;2.90;99.90
23207;DHT22;11773;52.570;13.052;2023-03-11T03:03:46;2.80;99.90
23207;DHT22;11773;52.570;13.052;2023-03-11T03:06:16;2.80;99.90
23207;DHT22;11773;52.570;13.052;2023-03-11T03:08:45;2.90;99.90
23207;DHT22;11773;52.570;13.052;2023-03-11T03:11:14;2.80;99.90
23207;DHT22;11773;52.570;13.052;2023-03-11T03:13:44;2.80;99.90
23207;DHT22;11773;52.570;13.052;2023-03-11T03:16:13;2.70;99.90
23207;DHT22;11773;52.570;13.052;2023-03-11T03:18:43;2.80;99.90
23207;DHT22;11773;52.570;13.052;2023-03-11T03:21:13;2.90;99.90
23207;DHT22;11773;52.570;13.052;2023-03-11T03:23:42;2.80;99.90
23207;DHT22;11773;52.570;13.052;2023-03-11T03:26:13;2.90;99.90
23207;DHT22;11773;52.570;13.052;2023-03-11T03:28:43;2.90;99.90
23207;DHT22;11773;52.570;13.052;2023-03-11T03:31:12;2.80;99.90
23207;DHT22;11773;52.570;13.052;2023-03-11T03:33:41;2.90;99.90
23207;DHT22;11773;52.570;13.052;2023-03-11T03:36:13;2.80;99.90
23207;DHT22;11773;52.570;13.052;2023-03-11T03:38:43;2.80;99.90
23207;DHT22;11773;52.570;13.052;2023-03-11T03:41:15;3.00;99.90
23207;DHT22;11773;52.570;13.052;2023-03-11T03:43:45;2.90;99.90
23207;DHT22;11773;52.570;13.052;2023-03-11T03:46:14;2.90;99.90
23207;DHT22;11773;52.570;13.052;2023-03-11T03:48:47;2.90;99.90
23207;DHT22;11773;52.570;13.052;2023-03-11T03:51:17;2.90;99.90
23207;DHT22;11773;52.570;13.052;2023-03-11T03:53:46;2.90;99.90
23207;DHT22;11773;52.570;13.052;2023-03-11T03:56:17;2.90;99.90
23207;DHT22;11773;52.570;13.052;2023-03-11T03:58:47;2.80;99.90
23207;DHT22;11773;52.570;13.052;2023-03-11T04:01:16;3.00;99.90
23207;DHT22;11773;52.570;13.052;2023-03-11T04:03:46;2.90;99.90
23207;DHT22;11773;52.570;13.052;2023-03-11T04:06:22;3.00;99.90
23207;DHT22;11773;52.570;13.052;2023-03-11T04:08:53;3.00;99.90
23207;DHT22;11773;52.570;13.052;2023-03-11T04:11:23;2.90;99.90
23207;DHT22;11773;52.570;13.052;2023-03-11T04:13:53;2.90;99.90
23207;DHT22;11773;52.570;13.052;2023-03-11T04:16:23;2.80;99.90
23207;DHT22;11773;52.570;13.052;2023-03-11T04:18:53;2.90;99.90
23207;DHT22;11773;52.570;13.052;2023-03-11T04:21:22;2.80;99.90
23207;DHT22;11773;52.570;13.052;2023-03-11T04:23:52;2.80;99.90
23207;DHT22;11773;52.570;13.052;2023-03-11T04:26:21;2.80;99.90
23207;DHT22;11773;52.570;13.052;2023-03-11T04:28:51;2.80;99.90
23207;DHT22;11773;52.570;13.052;2023-03-11T04:31:20;2.80;99.90
23207;DHT22;11773;52.570;13.052;2023-03-11T04:33:50;2.70;99.90
23207;DHT22;11773;52.570;13.052;2023-03-11T04:36:19;2.80;99.90
23207;DHT22;11773;52.570;13.052;2023-03-11T04:38:49;2.80;99.90
23207;DHT22;11773;52.570;13.052;2023-03-11T04:41:18;2.80;99.90
23207;DHT22;11773;52.570;13.052;2023-03-11T04:43:47;2.80;99.90
23207;DHT22;11773;52.570;13.052;2023-03-11T04:46:17;2.70;99.90
23207;DHT22;11773;52.570;13.052;2023-03-11T04:48:47;2.60;99.90
23207;DHT22;11773;52.570;13.052;2023-03-11T04:51:16;2.70;99.90
23207;DHT22;11773;52.570;13.052;2023-03-11T04:53:45;2.80;99.90
23207;DHT22;11773;52.570;13.052;2023-03-11T04:56:15;2.80;99.90
23207;DHT22;11773;52.570;13.052;2023-03-11T04:58:44;2.80;99.90
23207;DHT22;11773;52.570;13.052;2023-03-11T05:01:14;2.80;99.90
23207;DHT22;11773;52.570;13.052;2023-03-11T05:03:43;2.90;99.90
23207;DHT22;11773;52.570;13.052;2023-03-11T05:06:13;2.90;99.90
23207;DHT22;11773;52.570;13.052;2023-03-11T05:08:43;2.80;99.90
23207;DHT22;11773;52.570;13.052;2023-03-11T05:11:12;2.80;99.90
23207;DHT22;11773;52.570;13.052;2023-03-11T05:13:42;2.80;99.90
23207;DHT22;11773;52.570;13.052;2023-03-11T05:16:11;2.90;99.90
23207;DHT22;11773;52.570;13.052;2023-03-11T05:18:41;2.90;99.90
23207;DHT22;11773;52.570;13.052;2023-03-11T05:21:10;2.80;99.90
23207;DHT22;11773;52.570;13.052;2023-03-11T05:23:40;2.80;99.90
23207;DHT22;11773;52.570;13.052;2023-03-11T05:26:09;2.80;99.90
23207;DHT22;11773;52.570;13.052;2023-03-11T05:28:39;2.80;99.90
23207;DHT22;11773;52.570;13.052;2023-03-11T05:31:09;2.90;99.90
23207;DHT22;11773;52.570;13.052;2023-03-11T05:33:39;2.90;99.90
23207;DHT22;11773;52.570;13.052;2023-03-11T05:36:09;3.00;99.90
23207;DHT22;11773;52.570;13.052;2023-03-11T05:38:38;2.90;99.90
23207;DHT22;11773;52.570;13.052;2023-03-11T05:41:08;2.90;99.90
23207;DHT22;11773;52.570;13.052;2023-03-11T05:43:37;2.80;99.90
23207;DHT22;11773;52.570;13.052;2023-03-11T05:46:07;2.80;99.90
23207;DHT22;11773;52.570;13.052;2023-03-11T05:48:37;3.00;99.90
23207;DHT22;11773;52.570;13.052;2023-03-11T05:51:11;3.00;99.90
23207;DHT22;11773;52.570;13.052;2023-03-11T05:53:45;3.00;99.90
23207;DHT22;11773;52.570;13.052;2023-03-11T05:56:17;2.80;99.90
23207;DHT22;11773;52.570;13.052;2023-03-11T05:58:48;2.90;99.90
23207;DHT22;11773;52.570;13.052;2023-03-11T06:01:18;3.00;99.90
23207;DHT22;11773;52.570;13.052;2023-03-11T06:03:48;2.90;99.90
23207;DHT22;11773;52.570;13.052;2023-03-11T06:06:18;3.00;99.90
23207;DHT22;11773;52.570;13.052;2023-03-11T06:08:47;3.00;99.90
23207;DHT22;11773;52.570;13.052;2023-03-11T06:11:17;2.90;99.90
23207;DHT22;11773;52.570;13.052;2023-03-11T06:13:46;2.90;99.90
23207;DHT22;11773;52.570;13.052;2023-03-11T06:16:16;2.90;99.90
23207;DHT22;11773;52.570;13.052;2023-03-11T06:18:45;3.00;99.90
23207;DHT22;11773;52.570;13.052;2023-03-11T06:21:20;3.10;99.90
23207;DHT22;11773;52.570;13.052;2023-03-11T06:23:51;2.90;99.90
23207;DHT22;11773;52.570;13.052;2023-03-11T06:26:22;3.10;99.90
23207;DHT22;11773;52.570;13.052;2023-03-11T06:28:52;3.10;99.90
23207;DHT22;11773;52.570;13.052;2023-03-11T06:31:23;3.10;99.90
23207;DHT22;11773;52.570;13.052;2023-03-11T06:33:55;3.10;99.90
23207;DHT22;11773;52.570;13.052;2023-03-11T06:36:26;3.10;99.90
23207;DHT22;11773;52.570;13.052;2023-03-11T06:38:55;3.10;99.90
23207;DHT22;11773;52.570;13.052;2023-03-11T06:41:25;3.10;99.90
23207;DHT22;11773;52.570;13.052;2023-03-11T06:43:56;3.20;99.90
23207;DHT22;11773;52.570;13.052;2023-03-11T06:46:26;3.00;99.90
23207;DHT22;11773;52.570;13.052;2023-03-11T06:48:56;3.20;99.90
23207;DHT22;11773;52.570;13.052;2023-03-11T06:51:25;3.10;99.90
23207;DHT22;11773;52.570;13.052;2023-03-11T06:53:55;3.30;99.90
23207;DHT22;11773;52.570;13.052;2023-03-11T06:56:24;3.20;99.90
23207;DHT22;11773;52.570;13.052;2023-03-11T06:58:54;3.20;99.90
23207;DHT22;11773;52.570;13.052;2023-03-11T07:01:25;3.20;99.90
23207;DHT22;11773;52.570;13.052;2023-03-11T07:03:55;3.20;99.90
23207;DHT22;11773;52.570;13.052;2023-03-11T07:06:26;3.20;99.90
23207;DHT22;11773;52.570;13.052;2023-03-11T07:08:56;3.60;99.90
23207;DHT22;11773;52.570;13.052;2023-03-11T07:11:26;3.90;99.90
23207;DHT22;11773;52.570;13.052;2023-03-11T07:13:56;4.10;99.90
23207;DHT22;11773;52.570;13.052;2023-03-11T07:16:28;4.30;99.90
23207;DHT22;11773;52.570;13.052;2023-03-11T07:18:59;4.40;99.90
23207;DHT22;11773;52.570;13.052;2023-03-11T07:21:31;4.50;99.90
23207;DHT22;11773;52.570;13.052;2023-03-11T07:24:01;4.30;99.90
23207;DHT22;11773;52.570;13.052;2023-03-11T07:26:33;4.50;99.90
23207;DHT22;11773;52.570;13.052;2023-03-11T07:29:03;4.60;99.90
23207;DHT22;11773;52.570;13.052;2023-03-11T07:31:34;4.70;99.90
23207;DHT22;11773;52.570;13.052;2023-03-11T07:34:06;4.50;99.90
23207;DHT22;11773;52.570;13.052;2023-03-11T07:36:39;4.40;99.90
23207;DHT22;11773;52.570;13.052;2023-03-11T07:39:15;4.30;99.90
23207;DHT22;11773;52.570;13.052;2023-03-11T07:41:45;4.40;99.90
23207;DHT22;11773;52.570;13.052;2023-03-11T07:44:15;4.60;99.90
23207;DHT22;11773;52.570;13.052;2023-03-11T07:46:46;4.50;99.90
23207;DHT22;11773;52.570;13.052;2023-03-11T07:49:15;4.70;99.90
23207;DHT22;11773;52.570;13.052;2023-03-11T07:51:45;4.60;99.90
23207;DHT22;11773;52.570;13.052;2023-03-11T07:54:14;4.80;99.90
23207;DHT22;11773;52.570;13.052;2023-03-11T07:56:44;4.90;99.90
23207;DHT22;11773;52.570;13.052;2023-03-11T07:59:13;4.70;99.90
23207;DHT22;11773;52.570;13.052;2023-03-11T08:01:42;4.60;99.90
23207;DHT22;11773;52.570;13.052;2023-03-11T08:04:14;4.60;99.90
23207;DHT22;11773;52.570;13.052;2023-03-11T08:06:46;4.60;99.90
23207;DHT22;11773;52.570;13.052;2023-03-11T08:09:15;4.60;99.90
23207;DHT22;11773;52.570;13.052;2023-03-11T08:11:45;4.70;99.90
23207;DHT22;11773;52.570;13.052;2023-03-11T08:14:16;4.40;99.90
23207;DHT22;11773;52.570;13.052;2023-03-11T08:16:45;4.40;99.90
23207;DHT22;11773;52.570;13.052;2023-03-11T08:19:15;4.60;99.90
23207;DHT22;11773;52.570;13.052;2023-03-11T08:21:45;4.40;99.90
23207;DHT22;11773;52.570;13.052;2023-03-11T08:24:14;4.40;99.90
23207;DHT22;11773;52.570;13.052;2023-03-11T08:26:43;4.60;99.90
23207;DHT22;11773;52.570;13.052;2023-03-11T08:29:13;4.80;99.90
23207;DHT22;11773;52.570;13.052;2023-03-11T08:31:42;4.60;99.90
23207;DHT22;11773;52.570;13.052;2023-03-11T08:34:13;4.80;99.90
23207;DHT22;11773;52.570;13.052;2023-03-11T08:36:43;4.80;99.90
23207;DHT22;11773;52.570;13.052;2023-03-11T08:39:13;4.90;99.90
23207;DHT22;11773;52.570;13.052;2023-03-11T08:41:43;4.90;99.90
23207;DHT22;11773;52.570;13.052;2023-03-11T08:44:12;5.00;99.90
23207;DHT22;11773;52.570;13.052;2023-03-11T08:46:42;4.80;99.90
23207;DHT22;11773;52.570;13.052;2023-03-11T08:49:11;4.80;99.90
23207;DHT22;11773;52.570;13.052;2023-03-11T08:51:41;5.00;99.90
23207;DHT22;11773;52.570;13.052;2023-03-11T08:54:10;5.20;99.90
23207;DHT22;11773;52.570;13.052;2023-03-11T08:56:40;5.10;99.90
23207;DHT22;11773;52.570;13.052;2023-03-11T08:59:10;4.70;99.90
23207;DHT22;11773;52.570;13.052;2023-03-11T09:01:39;4.60;99.90
23207;DHT22;11773;52.570;13.052;2023-03-11T09:04:09;4.40;99.90
23207;DHT22;11773;52.570;13.052;2023-03-11T09:06:42;4.70;99.90
23207;DHT22;11773;52.570;13.052;2023-03-11T09:09:12;4.90;99.90
23207;DHT22;11773;52.570;13.052;2023-03-11T09:11:44;4.80;99.90
23207;DHT22;11773;52.570;13.052;2023-03-11T09:14:15;4.90;99.90
23207;DHT22;11773;52.570;13.052;2023-03-11T09:16:44;5.00;99.90
23207;DHT22;11773;52.570;13.052;2023-03-11T09:19:14;4.80;99.90
23207;DHT22;11773;52.570;13.052;2023-03-11T09:21:43;4.90;99.90
23207;DHT22;11773;52.570;13.052;2023-03-11T09:24:13;4.80;99.90
23207;DHT22;11773;52.570;13.052;2023-03-11T09:26:42;4.70;99.90
23207;DHT22;11773;52.570;13.052;2023-03-11T09:29:11;4.70;99.90
23207;DHT22;11773;52.570;13.052;2023-03-11T09:31:41;4.70;99.90
23207;DHT22;11773;52.570;13.052;2023-03-11T09:34:12;4.60;99.90
23207;DHT22;11773;52.570;13.052;2023-03-11T09:36:43;4.60;99.90
23207;DHT22;11773;52.570;13.052;2023-03-11T09:39:13;4.60;99.90
23207;DHT22;11773;52.570;13.052;2023-03-11T09:42:01;4.50;99.90
23207;DHT22;11773;52.570;13.052;2023-03-11T09:45:03;4.40;99.90
23207;DHT22;11773;52.570;13.052;2023-03-11T09:47:52;4.50;99.90
23207;DHT22;11773;52.570;13.052;2023-03-11T09:50:42;4.40;99.90
23207;DHT22;11773;52.570;13.052;2023-03-11T09:53:40;4.20;99.90
23207;DHT22;11773;52.570;13.052;2023-03-11T09:56:17;4.40;99.90
23207;DHT22;11773;52.570;13.052;2023-03-11T09:58:55;4.30;99.90
23207;DHT22;11773;52.570;13.052;2023-03-11T10:01:35;4.10;99.90
23207;DHT22;11773;52.570;13.052;2023-03-11T10:04:12;4.30;99.90
23207;DHT22;11773;52.570;13.052;2023-03-11T10:06:56;4.20;99.90
23207;DHT22;11773;52.570;13.052;2023-03-11T10:09:42;4.20;99.90
23207;DHT22;11773;52.570;13.052;2023-03-11T10:15:35;4.20;99.90
23207;DHT22;11773;52.570;13.052;2023-03-11T10:21:09;4.10;99.90
23207;DHT22;11773;52.570;13.052;2023-03-11T10:24:00;4.30;99.90
23207;DHT22;11773;52.570;13.052;2023-03-11T10:26:47;4.30;99.90
23207;DHT22;11773;52.570;13.052;2023-03-11T10:29:52;4.50;99.90
23207;DHT22;11773;52.570;13.052;2023-03-11T10:32:24;4.70;99.90
23207;DHT22;11773;52.570;13.052;2023-03-11T10:35:05;4.90;99.90
23207;DHT22;11773;52.570;13.052;2023-03-11T10:37:42;4.80;99.90
23207;DHT22;11773;52.570;13.052;2023-03-11T10:40:28;5.00;99.90
23207;DHT22;11773;52.570;13.052;2023-03-11T10:43:24;5.00;99.90
23207;DHT22;11773;52.570;13.052;2023-03-11T10:45:51;4.80;99.90
23207;DHT22;11773;52.570;13.052;2023-03-11T10:48:23;4.70;99.90
23207;DHT22;11773;52.570;13.052;2023-03-11T10:51:01;4.60;99.90
23207;DHT22;11773;52.570;13.052;2023-03-11T10:53:34;4.50;99.90
23207;DHT22;11773;52.570;13.052;2023-03-11T10:56:24;4.50;99.90
23207;DHT22;11773;52.570;13.052;2023-03-11T10:59:03;4.50;99.90
23207;DHT22;11773;52.570;13.052;2023-03-11T11:01:34;4.50;99.90
23207;DHT22;11773;52.570;13.052;2023-03-11T11:04:10;4.60;99.90
23207;DHT22;11773;52.570;13.052;2023-03-11T11:06:37;4.70;99.90
23207;DHT22;11773;52.570;13.052;2023-03-11T11:09:18;5.00;99.90
23207;DHT22;11773;52.570;13.052;2023-03-11T11:12:12;5.10;99.90
23207;DHT22;11773;52.570;13.052;2023-03-11T11:14:50;5.20;99.90
23207;DHT22;11773;52.570;13.052;2023-03-11T11:17:30;5.40;99.90
23207;DHT22;11773;52.570;13.052;2023-03-11T11:20:03;5.50;99.90
23207;DHT22;11773;52.570;13.052;2023-03-11T11:22:34;5.30;99.90
23207;DHT22;11773;52.570;13.052;2023-03-11T11:25:23;5.40;99.90
23207;DHT22;11773;52.570;13.052;2023-03-11T11:27:40;5.10;99.90
23207;DHT22;11773;52.570;13.052;2023-03-11T11:30:15;5.00;99.90
23207;DHT22;11773;52.570;13.052;2023-03-11T11:32:45;4.80;99.90
23207;DHT22;11773;52.570;13.052;2023-03-11T11:35:16;5.00;99.90
23207;DHT22;11773;52.570;13.052;2023-03-11T11:37:53;5.20;99.90
23207;DHT22;11773;52.570;13.052;2023-03-11T11:40:26;5.20;99.90
23207;DHT22;11773;52.570;13.052;2023-03-11T11:43:11;5.20;99.90
23207;DHT22;11773;52.570;13.052;2023-03-11T11:45:56;4.80;99.90
23207;DHT22;11773;52.570;13.052;2023-03-11T11:49:01;5.10;99.90
23207;DHT22;11773;52.570;13.052;2023-03-11T11:51:34;5.10;99.90
23207;DHT22;11773;52.570;13.052;2023-03-11T11:54:24;5.30;99.90
23207;DHT22;11773;52.570;13.052;2023-03-11T11:57:14;5.10;99.90
23207;DHT22;11773;52.570;13.052;2023-03-11T11:59:44;5.00;99.90
23207;DHT22;11773;52.570;13.052;2023-03-11T12:02:41;5.30;99.90
23207;DHT22;11773;52.570;13.052;2023-03-11T12:05:22;5.40;99.90
23207;DHT22;11773;52.570;13.052;2023-03-11T12:08:08;5.40;99.90
23207;DHT22;11773;52.570;13.052;2023-03-11T12:11:02;5.20;99.90
23207;DHT22;11773;52.570;13.052;2023-03-11T12:13:46;4.90;99.90
23207;DHT22;11773;52.570;13.052;2023-03-11T12:19:02;5.00;99.90
23207;DHT22;11773;52.570;13.052;2023-03-11T12:22:14;4.80;99.90
23207;DHT22;11773;52.570;13.052;2023-03-11T12:28:04;5.00;99.90
23207;DHT22;11773;52.570;13.052;2023-03-11T12:31:01;4.80;99.90
23207;DHT22;11773;52.570;13.052;2023-03-11T12:33:41;5.20;99.90
23207;DHT22;11773;52.570;13.052;2023-03-11T12:36:33;5.10;99.90
23207;DHT22;11773;52.570;13.052;2023-03-11T12:39:29;5.30;99.90
23207;DHT22;11773;52.570;13.052;2023-03-11T12:42:14;5.10;99.90
23207;DHT22;11773;52.570;13.052;2023-03-11T12:44:46;5.00;99.90
23207;DHT22;11773;52.570;13.052;2023-03-11T12:49:56;4.90;99.90
23207;DHT22;11773;52.570;13.052;2023-03-11T12:52:28;5.00;99.90
23207;DHT22;11773;52.570;13.052;2023-03-11T12:57:39;5.10;99.90
23207;DHT22;11773;52.570;13.052;2023-03-11T13:01:15;5.00;99.90
23207;DHT22;11773;52.570;13.052;2023-03-11T13:09:13;5.20;99.90
23207;DHT22;11773;52.570;13.052;2023-03-11T13:11:46;5.30;99.90
23207;DHT22;11773;52.570;13.052;2023-03-11T13:14:27;5.40;99.90
23207;DHT22;11773;52.570;13.052;2023-03-11T13:19:50;5.00;99.90
23207;DHT22;11773;52.570;13.052;2023-03-11T13:22:40;5.20;99.90
23207;DHT22;11773;52.570;13.052;2023-03-11T13:25:32;5.30;99.90
23207;DHT22;11773;52.570;13.052;2023-03-11T13:28:17;5.20;99.90
23207;DHT22;11773;52.570;13.052;2023-03-11T13:30:53;4.90;99.90
23207;DHT22;11773;52.570;13.052;2023-03-11T13:33:50;5.00;99.90
23207;DHT22;11773;52.570;13.052;2023-03-11T13:36:31;5.10;99.90
23207;DHT22;11773;52.570;13.052;2023-03-11T13:39:19;5.40;99.90
23207;DHT22;11773;52.570;13.052;2023-03-11T13:41:55;5.30;99.90
23207;DHT22;11773;52.570;13.052;2023-03-11T13:44:33;5.20;99.90
23207;DHT22;11773;52.570;13.052;2023-03-11T13:47:15;5.30;99.90
23207;DHT22;11773;52.570;13.052;2023-03-11T13:49:58;5.30;99.90
23207;DHT22;11773;52.570;13.052;2023-03-11T13:52:37;5.30;99.90
23207;DHT22;11773;52.570;13.052;2023-03-11T13:55:19;5.20;99.90
23207;DHT22;11773;52.570;13.052;2023-03-11T13:58:00;5.10;99.90
23207;DHT22;11773;52.570;13.052;2023-03-11T14:00:32;5.00;99.90
23207;DHT22;11773;52.570;13.052;2023-03-11T14:03:03;5.00;99.90
23207;DHT22;11773;52.570;13.052;2023-03-11T14:05:37;5.30;99.90
23207;DHT22;11773;52.570;13.052;2023-03-11T14:08:20;5.30;99.90
23207;DHT22;11773;52.570;13.052;2023-03-11T14:11:15;5.50;99.90
23207;DHT22;11773;52.570;13.052;2023-03-11T14:13:47;5.00;99.90
23207;DHT22;11773;52.570;13.052;2023-03-11T14:16:20;5.00;99.90
23207;DHT22;11773;52.570;13.052;2023-03-11T14:19:15;4.70;99.90
23207;DHT22;11773;52.570;13.052;2023-03-11T14:21:47;4.50;99.90
23207;DHT22;11773;52.570;13.052;2023-03-11T14:24:24;4.50;99.90
23207;DHT22;11773;52.570;13.052;2023-03-11T14:26:58;4.70;99.90
23207;DHT22;11773;52.570;13.052;2023-03-11T14:29:39;4.90;99.90
23207;DHT22;11773;52.570;13.052;2023-03-11T14:32:28;4.90;99.90
23207;DHT22;11773;52.570;13.052;2023-03-11T14:35:00;4.70;99.90
23207;DHT22;11773;52.570;13.052;2023-03-11T14:37:34;4.50;99.90
23207;DHT22;11773;52.570;13.052;2023-03-11T14:40:24;4.40;99.90
23207;DHT22;11773;52.570;13.052;2023-03-11T14:43:06;4.40;99.90
23207;DHT22;11773;52.570;13.052;2023-03-11T14:45:38;4.40;99.90
23207;DHT22;11773;52.570;13.052;2023-03-11T14:48:24;4.40;99.90
23207;DHT22;11773;52.570;13.052;2023-03-11T14:51:03;4.40;99.90
23207;DHT22;11773;52.570;13.052;2023-03-11T14:53:39;4.50;99.90
23207;DHT22;11773;52.570;13.052;2023-03-11T14:56:15;4.60;99.90
23207;DHT22;11773;52.570;13.052;2023-03-11T14:58:54;4.50;99.90
23207;DHT22;11773;52.570;13.052;2023-03-11T15:01:37;4.60;99.90
23207;DHT22;11773;52.570;13.052;2023-03-11T15:04:11;4.80;99.90
23207;DHT22;11773;52.570;13.052;2023-03-11T15:07:02;4.60;99.90
23207;DHT22;11773;52.570;13.052;2023-03-11T15:09:33;4.70;99.90
23207;DHT22;11773;52.570;13.052;2023-03-11T15:12:06;4.60;99.90
23207;DHT22;11773;52.570;13.052;2023-03-11T15:14:48;4.60;99.90
23207;DHT22;11773;52.570;13.052;2023-03-11T15:17:24;4.60;99.90
23207;DHT22;11773;52.570;13.052;2023-03-11T15:19:57;4.60;99.90
23207;DHT22;11773;52.570;13.052;2023-03-11T15:22:37;4.50;99.90
23207;DHT22;11773;52.570;13.052;2023-03-11T15:25:15;4.50;99.90
23207;DHT22;11773;52.570;13.052;2023-03-11T15:27:46;4.70;99.90
23207;DHT22;11773;52.570;13.052;2023-03-11T15:30:18;4.60;99.90
23207;DHT22;11773;52.570;13.052;2023-03-11T15:32:53;4.60;99.90
23207;DHT22;11773;52.570;13.052;2023-03-11T15:35:28;4.60;99.90
23207;DHT22;11773;52.570;13.052;2023-03-11T15:38:16;4.40;99.90
23207;DHT22;11773;52.570;13.052;2023-03-11T15:40:59;4.60;99.90
23207;DHT22;11773;52.570;13.052;2023-03-11T15:43:46;4.50;99.90
23207;DHT22;11773;52.570;13.052;2023-03-11T15:46:16;4.40;99.90
23207;DHT22;11773;52.570;13.052;2023-03-11T15:48:46;4.40;99.90
23207;DHT22;11773;52.570;13.052;2023-03-11T15:51:18;4.40;99.90
23207;DHT22;11773;52.570;13.052;2023-03-11T15:53:48;4.40;99.90
23207;DHT22;11773;52.570;13.052;2023-03-11T15:56:22;4.50;99.90
23207;DHT22;11773;52.570;13.052;2023-03-11T15:58:51;4.40;99.90
23207;DHT22;11773;52.570;13.052;2023-03-11T16:01:21;4.50;99.90
23207;DHT22;11773;52.570;13.052;2023-03-11T16:03:52;4.50;99.90
23207;DHT22;11773;52.570;13.052;2023-03-11T16:06:22;4.50;99.90
23207;DHT22;11773;52.570;13.052;2023-03-11T16:08:51;4.50;99.90
23207;DHT22;11773;52.570;13.052;2023-03-11T16:11:21;4.50;99.90
23207;DHT22;11773;52.570;13.052;2023-03-11T16:13:50;4.60;99.90
23207;DHT22;11773;52.570;13.052;2023-03-11T16:16:19;4.60;99.90
23207;DHT22;11773;52.570;13.052;2023-03-11T16:18:49;4.60;99.90
23207;DHT22;11773;52.570;13.052;2023-03-11T16:21:21;4.50;99.90
23207;DHT22;11773;52.570;13.052;2023-03-11T16:23:53;4.30;99.90
23207;DHT22;11773;52.570;13.052;2023-03-11T16:26:22;4.40;99.90
23207;DHT22;11773;52.570;13.052;2023-03-11T16:28:52;4.30;99.90
23207;DHT22;11773;52.570;13.052;2023-03-11T16:31:21;4.30;99.90
23207;DHT22;11773;52.570;13.052;2023-03-11T16:33:51;4.40;99.90
23207;DHT22;11773;52.570;13.052;2023-03-11T16:36:20;4.40;99.90
23207;DHT22;11773;52.570;13.052;2023-03-11T16:38:50;4.40;99.90